Time;durP1;ratioP1;P1;durP2;ratioP2;P2;SDS_P1;SDS_P2;PMS_P1;PMS_P2;Temp;Humidity;BMP_temperature;BMP_pressure;BME280_temperature;BME280_humidity;BME280_pressure;Samples;Min_cycle;Max_cycle;Signal;HPM_P1;HPM_P2
2022/11/23 00:01:55;;;;;;;94.77;32.95;;;;;;;-0.39;100.00;97966.55;4187586;83;21040;-86
2022/11/23 00:07:56;;;;;;;65.05;31.65;;;;;;;-0.43;100.00;97962.96;4212931;82;21072;-86
2022/11/23 00:13:58;;;;;;;77.72;32.58;;;;;;;-0.43;100.00;97962.96;4207181;82;21000;-86
2022/11/23 00:20:00;;;;;;;74.80;33.05;;;;;;;-0.48;100.00;97965.29;4200449;82;20962;-86
2022/11/23 00:26:02;;;;;;;76.00;32.73;;;;;;;-0.39;100.00;97970.04;4246101;81;21014;-87
2022/11/23 00:32:04;;;;;;;75.55;33.95;;;;;;;-0.39;100.00;97970.04;4260461;81;21525;-86
2022/11/23 00:38:06;;;;;;;71.70;31.95;;;;;;;-0.36;100.00;97963.23;4263700;81;20997;-87
2022/11/23 00:44:07;;;;;;;81.50;33.78;;;;;;;-0.35;100.00;97972.31;4294102;81;21036;-85
2022/11/23 00:50:15;;;;;;;78.67;34.55;;;;;;;-0.36;100.00;97965.34;4235666;82;21005;-86
2022/11/23 00:56:18;;;;;;;106.25;37.63;;;;;;;-0.36;100.00;97972.07;4240823;82;21051;-86
2022/11/23 01:02:19;;;;;;;89.17;36.28;;;;;;;-0.35;100.00;97976.91;4242804;83;21047;-86
2022/11/23 01:15:31;;;;;;;93.37;36.20;;;;;;;-0.43;100.00;97954.89;4242275;82;21942;-86
2022/11/23 01:21:34;;;;;;;96.50;35.73;;;;;;;-0.43;100.00;97954.89;4241749;82;20949;-86
2022/11/23 01:27:35;;;;;;;89.58;34.88;;;;;;;-0.43;100.00;97961.07;4258981;82;21012;-85
2022/11/23 01:33:44;;;;;;;80.50;33.95;;;;;;;-0.44;100.00;97957.36;4213757;82;21096;-86
2022/11/23 01:39:47;;;;;;;92.15;35.85;;;;;;;-0.45;100.00;97954.42;4192217;83;20990;-86
2022/11/23 01:45:59;;;;;;;93.52;36.17;;;;;;;-0.52;100.00;97948.22;4214911;82;21022;-85
2022/11/23 01:52:13;;;;;;;90.20;36.10;;;;;;;-0.52;100.00;97948.22;4181480;83;21009;-85
2022/11/23 01:58:19;;;;;;;83.10;36.10;;;;;;;-0.57;100.00;97960.54;4244738;81;20964;-86
2022/11/23 02:04:58;;;;;;;73.42;31.35;;;;;;;-0.59;100.00;97961.41;4235911;82;21023;-86
2022/11/23 02:10:59;;;;;;;74.22;31.70;;;;;;;-0.56;100.00;97964.00;4192268;83;21001;-86
2022/11/23 02:17:01;;;;;;;76.47;32.55;;;;;;;-0.57;100.00;97957.06;4266344;81;21063;-86
2022/11/23 02:23:48;;;;;;;68.62;29.42;;;;;;;-0.66;100.00;97944.24;4280838;81;21064;-86
2022/11/23 02:29:51;;;;;;;73.12;30.60;;;;;;;-0.66;100.00;97943.66;4256576;82;21014;-86
2022/11/23 02:35:58;;;;;;;76.35;32.55;;;;;;;-0.62;100.00;97947.84;4225851;81;21009;-86
2022/11/23 02:42:02;;;;;;;78.28;33.02;;;;;;;-0.58;100.00;97947.43;4240730;81;21074;-86
2022/11/23 02:48:04;;;;;;;57.62;27.50;;;;;;;-0.56;100.00;97950.01;4243743;81;21011;-86
2022/11/23 02:54:05;;;;;;;69.47;28.75;;;;;;;-0.60;100.00;97946.96;4237269;82;21070;-86
2022/11/23 03:00:11;;;;;;;73.75;32.67;;;;;;;-0.63;100.00;97947.62;4229536;82;21562;-86
2022/11/23 03:06:12;;;;;;;71.28;31.30;;;;;;;-0.65;100.00;97948.49;4242020;82;21063;-86
2022/11/23 03:12:14;;;;;;;78.22;33.98;;;;;;;-0.62;100.00;97943.26;4248250;82;20996;-86
2022/11/23 03:18:16;;;;;;;77.97;34.43;;;;;;;-0.59;100.00;97937.77;4256417;81;21059;-86
2022/11/23 03:24:19;;;;;;;85.17;33.65;;;;;;;-0.61;100.00;97943.48;4268323;81;21018;-86
2022/11/23 03:30:31;;;;;;;89.10;35.80;;;;;;;-0.59;100.00;97943.15;4275619;80;21045;-86
2022/11/23 03:36:36;;;;;;;78.00;33.30;;;;;;;-0.56;100.00;97943.83;4267582;81;21047;-86
2022/11/23 03:42:40;;;;;;;90.97;34.43;;;;;;;-0.60;100.00;97945.07;4250114;81;21039;-86
2022/11/23 03:48:50;;;;;;;84.47;35.55;;;;;;;-0.65;100.00;97945.26;4258289;81;21068;-86
2022/11/23 03:54:51;;;;;;;76.50;31.73;;;;;;;-0.78;100.00;97927.48;4224570;82;21029;-86
2022/11/23 04:01:15;;;;;;;84.85;35.43;;;;;;;-0.78;100.00;97927.48;4206944;83;21064;-86
2022/11/23 04:07:18;;;;;;;87.88;33.80;;;;;;;-0.73;100.00;97942.06;4279530;81;20998;-86
2022/11/23 04:13:22;;;;;;;66.95;29.55;;;;;;;-0.86;100.00;97920.26;4205958;83;21073;-87
2022/11/23 04:19:24;;;;;;;69.05;31.35;;;;;;;-0.81;100.00;97931.36;4264727;81;21735;-86
2022/11/23 04:25:26;;;;;;;70.92;31.00;;;;;;;-0.88;100.00;97933.25;4208821;82;21026;-86
2022/11/23 04:31:27;;;;;;;69.70;29.57;;;;;;;-0.92;100.00;97942.26;4202306;83;21539;-86
2022/11/23 04:37:31;;;;;;;69.95;32.28;;;;;;;-0.98;100.00;97938.98;4198949;83;21596;-86
2022/11/23 04:43:32;;;;;;;75.12;31.70;;;;;;;-0.99;100.00;97940.11;4218152;82;21032;-86
2022/11/23 04:49:35;;;;;;;72.95;31.37;;;;;;;-1.12;100.00;97920.19;4229107;83;21001;-86
2022/11/23 04:55:38;;;;;;;77.87;32.67;;;;;;;-0.90;100.00;97946.77;4190317;83;21082;-86
2022/11/23 05:08:44;;;;;;;77.82;32.60;;;;;;;-0.86;100.00;97923.52;4217984;83;20992;-86
2022/11/23 05:14:50;;;;;;;72.47;32.73;;;;;;;-0.85;100.00;97929.11;4232002;82;20961;-87
2022/11/23 05:20:53;;;;;;;68.92;32.03;;;;;;;-0.86;100.00;97936.37;4230768;81;21045;-86
2022/11/23 05:26:55;;;;;;;70.78;31.87;;;;;;;-0.91;100.00;97940.59;4212356;82;21020;-87
2022/11/23 05:33:04;;;;;;;78.07;32.20;;;;;;;-0.93;100.00;97944.73;4207849;83;20991;-86
2022/11/23 05:39:05;;;;;;;76.77;34.33;;;;;;;-0.96;100.00;97944.03;4254727;82;21633;-86
2022/11/23 05:45:08;;;;;;;79.87;35.92;;;;;;;-0.97;100.00;97939.78;4241631;82;22120;-87
2022/11/23 05:51:11;;;;;;;87.85;38.00;;;;;;;-0.99;100.00;97946.83;4171118;83;21621;-87
2022/11/23 05:57:14;;;;;;;85.42;39.25;;;;;;;-1.00;100.00;97967.30;4179655;83;21083;-86
2022/11/23 06:03:17;;;;;;;101.67;39.20;;;;;;;-1.09;100.00;97962.50;4268626;82;21009;-86
2022/11/23 06:09:22;;;;;;;97.95;38.33;;;;;;;-0.95;100.00;97986.69;4252001;82;20983;-86
2022/11/23 06:15:23;;;;;;;93.30;38.30;;;;;;;-0.98;100.00;97986.00;4182829;83;20994;-86
2022/11/23 06:21:25;;;;;;;106.90;40.17;;;;;;;-0.99;100.00;97995.73;4249612;81;21025;-86
2022/11/23 06:27:27;;;;;;;93.52;38.38;;;;;;;-1.02;100.00;98005.78;4196689;82;21015;-87
2022/11/23 06:33:29;;;;;;;90.90;38.23;;;;;;;-1.02;100.00;98005.78;4259697;82;21633;-86
2022/11/23 06:39:31;;;;;;;97.22;41.63;;;;;;;-1.01;100.00;97987.99;4198066;83;21051;-86
2022/11/23 06:45:34;;;;;;;100.87;39.30;;;;;;;-1.02;100.00;97996.37;4181457;83;21018;-86
2022/11/23 06:51:37;;;;;;;97.85;39.27;;;;;;;-0.99;100.00;97993.84;4172227;83;21020;-87
2022/11/23 06:57:39;;;;;;;80.38;33.85;;;;;;;-0.92;100.00;98004.84;4230592;82;21035;-87
2022/11/23 07:04:05;;;;;;;82.00;31.95;;;;;;;-0.90;100.00;98009.35;4253498;81;21574;-86
2022/11/23 07:10:09;;;;;;;71.57;29.23;;;;;;;-1.02;100.00;97989.66;4204786;83;21025;-86
2022/11/23 07:16:13;;;;;;;62.15;25.68;;;;;;;-0.85;100.00;98009.72;4229725;82;21095;-87
2022/11/23 07:22:15;;;;;;;57.78;24.12;;;;;;;-0.83;100.00;98010.19;4191237;83;21071;-87
2022/11/23 07:28:17;;;;;;;56.42;22.75;;;;;;;-0.90;100.00;97990.55;4261470;81;21025;-86
2022/11/23 07:34:19;;;;;;;63.25;24.63;;;;;;;-0.86;100.00;98004.13;4271026;81;21556;-85
2022/11/23 07:40:20;;;;;;;55.15;23.07;;;;;;;-0.83;100.00;97999.44;4273737;82;21042;-87
2022/11/23 07:46:23;;;;;;;57.43;24.70;;;;;;;-0.78;100.00;97998.69;4270759;82;21023;-87
2022/11/23 07:52:25;;;;;;;53.73;21.90;;;;;;;-0.78;100.00;97989.83;4270208;82;21006;-86
2022/11/23 07:58:27;;;;;;;54.73;22.77;;;;;;;-0.63;100.00;98004.86;4236415;82;21203;-86
2022/11/23 08:04:29;;;;;;;57.85;22.22;;;;;;;-0.63;100.00;98004.86;4257861;82;21080;-87
2022/11/23 08:10:34;;;;;;;55.48;24.75;;;;;;;-0.64;100.00;97998.47;4251002;82;21072;-86
2022/11/23 08:16:39;;;;;;;61.87;22.70;;;;;;;-0.67;100.00;97995.05;4222846;83;21007;-87
2022/11/23 08:22:41;;;;;;;55.78;22.42;;;;;;;-0.68;100.00;97984.09;4270877;82;21573;-86
2022/11/23 08:28:42;;;;;;;60.43;24.10;;;;;;;-0.67;100.00;97986.99;4251725;82;21018;-85
2022/11/23 08:34:43;;;;;;;65.85;23.80;;;;;;;-0.62;100.00;97994.88;4267157;82;20980;-86
2022/11/23 08:40:45;;;;;;;64.60;25.95;;;;;;;-0.60;100.00;98002.86;4269216;81;21026;-86
2022/11/23 08:46:46;;;;;;;66.17;26.80;;;;;;;-0.53;100.00;98007.70;4223215;82;21012;-86
2022/11/23 08:52:49;;;;;;;57.33;23.45;;;;;;;-0.48;100.00;98015.58;4222156;82;21069;-87
2022/11/23 08:58:51;;;;;;;61.85;25.05;;;;;;;-0.44;100.00;98021.89;4214969;82;21000;-87
2022/11/23 09:11:47;;;;;;;67.67;27.93;;;;;;;-0.42;100.00;98020.44;4266623;82;21551;-86
2022/11/23 09:17:48;;;;;;;67.60;25.50;;;;;;;-0.39;100.00;98010.92;4175835;83;21063;-86
2022/11/23 09:23:57;;;;;;;67.97;25.27;;;;;;;-0.40;100.00;98005.33;4160030;83;20963;-86
2022/11/23 09:29:59;;;;;;;71.50;27.77;;;;;;;-0.44;100.00;97979.64;4208417;82;21009;-87
2022/11/23 09:36:03;;;;;;;70.62;25.95;;;;;;;-0.33;100.00;97980.83;4209122;82;21012;-87
2022/11/23 09:42:45;;;;;;;68.87;26.37;;;;;;;-0.28;100.00;97981.98;4256205;81;20975;-87
2022/11/23 09:55:49;;;;;;;70.72;27.20;;;;;;;-0.17;100.00;97975.63;4185858;83;21055;-86
2022/11/23 10:01:50;;;;;;;75.45;28.10;;;;;;;-0.17;100.00;97972.94;4228400;82;21046;-86
2022/11/23 10:08:21;;;;;;;79.27;30.12;;;;;;;-0.18;100.00;97962.77;4186227;83;21016;-87
2022/11/23 10:14:49;;;;;;;72.55;27.22;;;;;;;-0.20;100.00;97962.30;4239079;81;21081;-87
2022/11/23 10:21:29;;;;;;;75.45;29.10;;;;;;;-0.15;100.00;97958.61;4203466;83;21042;-87
2022/11/23 10:27:31;;;;;;;75.95;29.55;;;;;;;-0.16;100.00;97946.30;4171252;83;21005;-86
2022/11/23 10:34:01;;;;;;;73.80;29.72;;;;;;;-0.14;100.00;97942.14;4204328;83;21685;-87
2022/11/23 10:40:24;;;;;;;78.07;30.62;;;;;;;-0.13;100.00;97945.08;4182769;83;21564;-87
2022/11/23 10:53:41;;;;;;;72.95;29.67;;;;;;;-0.07;100.00;97939.72;4282117;81;20977;-86
2022/11/23 11:00:08;;;;;;;71.07;31.30;;;;;;;-0.04;100.00;97933.67;4223759;82;21033;-87
2022/11/23 11:06:24;;;;;;;;;;;;;;;-0.05;100.00;97932.08;4186271;84;21064;-86
2022/11/23 11:12:49;;;;;;;77.03;29.70;;;;;;;-0.06;100.00;97946.66;4111493;85;20182;-87
2022/11/23 11:19:15;;;;;;;76.47;32.13;;;;;;;-0.06;100.00;97923.80;4201849;83;21107;-86
2022/11/23 11:25:36;;;;;;;84.35;32.78;;;;;;;-0.01;100.00;97922.80;4132811;84;21027;-87
2022/11/23 11:31:54;;;;;;;75.85;33.28;;;;;;;0.01;100.00;97923.27;4229168;82;21072;-87
2022/11/23 11:38:19;;;;;;;90.50;34.38;;;;;;;0.02;100.00;97918.67;4236980;82;21135;-86
2022/11/23 11:44:24;;;;;;;76.90;32.63;;;;;;;0.03;100.00;97933.69;4232980;82;21047;-88
2022/11/23 11:50:48;;;;;;;92.85;38.58;;;;;;;0.07;100.00;97934.03;4235391;82;21059;-87
2022/11/23 11:57:04;;;;;;;74.77;31.23;;;;;;;0.07;100.00;97927.31;4118962;82;21779;-86
2022/11/23 12:03:47;;;;;;;77.62;32.28;;;;;;;0.08;100.00;97920.03;4224983;82;21066;-86
2022/11/23 12:45:05;;;;;;;82.45;33.10;;;;;;;0.24;100.00;97919.05;4248638;81;20970;-86
2022/11/23 12:51:47;;;;;;;78.40;33.08;;;;;;;0.24;100.00;97921.74;4244275;81;21141;-86
2022/11/23 13:11:54;;;;;;;68.15;30.57;;;;;;;0.33;100.00;97933.20;4201092;82;22048;-87
2022/11/23 13:18:28;;;;;;;58.23;22.83;;;;;;;0.33;100.00;97927.81;4228856;82;21059;-86
2022/11/23 13:24:33;;;;;;;68.83;30.05;;;;;;;0.36;100.00;97940.60;4184816;82;21068;-85
2022/11/23 13:30:40;;;;;;;73.92;30.57;;;;;;;0.37;100.00;97938.16;4231571;82;22029;-87
2022/11/23 13:37:00;;;;;;;78.33;33.30;;;;;;;0.39;100.00;97948.04;4231814;82;21072;-86
2022/11/23 13:43:20;;;;;;;73.40;30.40;;;;;;;0.40;100.00;97944.77;4233156;82;21062;-85
2022/11/23 13:49:41;;;;;;;77.27;33.33;;;;;;;0.42;100.00;97942.53;4177971;83;21658;-87
2022/11/23 13:55:43;;;;;;;86.28;33.63;;;;;;;0.47;100.00;97946.37;4193006;82;21415;-86
2022/11/23 14:02:11;;;;;;;72.65;33.40;;;;;;;0.50;100.00;97940.31;4236450;82;21046;-87
2022/11/23 14:08:14;;;;;;;76.47;31.85;;;;;;;0.55;100.00;97949.52;4257355;82;21106;-86
2022/11/23 14:14:29;;;;;;;69.17;32.20;;;;;;;0.56;100.00;97949.73;4176070;83;21068;-87
2022/11/23 14:28:11;;;;;;;61.98;30.32;;;;;;;0.58;100.00;97945.58;4284056;81;21037;-87
2022/11/23 14:34:31;;;;;;;;;;;;;;;0.58;100.00;97942.13;4228446;83;20994;-87
2022/11/23 14:47:37;;;;;;;74.25;29.63;;;;;;;0.62;100.00;97956.47;4203834;83;20998;-88
2022/11/23 14:53:58;;;;;;;79.47;32.05;;;;;;;0.61;100.00;97968.38;4222342;81;20993;-87
2022/11/23 15:14:01;;;;;;;80.05;32.67;;;;;;;0.64;100.00;97979.28;4191180;84;21062;-86
2022/11/23 15:20:11;;;;;;;75.90;31.52;;;;;;;0.60;100.00;97978.36;4184444;83;21086;-86
2022/11/23 15:26:18;;;;;;;72.10;31.60;;;;;;;0.61;100.00;97980.50;4192349;83;22097;-87
2022/11/23 15:32:31;;;;;;;91.55;37.17;;;;;;;0.66;100.00;97990.48;4273049;82;21588;-86
2022/11/23 15:38:39;;;;;;;89.05;35.48;;;;;;;0.65;100.00;97994.30;4199604;83;20990;-86
2022/11/23 15:44:55;;;;;;;85.15;35.35;;;;;;;0.65;100.00;97986.77;4188697;83;21057;-87
2022/11/23 15:51:35;;;;;;;78.62;33.98;;;;;;;0.62;100.00;97991.48;4189621;81;21542;-87
2022/11/23 15:57:44;;;;;;;80.90;33.28;;;;;;;0.58;100.00;97986.55;4187340;81;21094;-86
2022/11/23 16:04:03;;;;;;;75.37;34.88;;;;;;;0.58;100.00;97991.94;4254268;82;21401;-87
2022/11/23 16:17:22;;;;;;;73.62;34.05;;;;;;;0.60;100.00;97989.13;4265911;81;21106;-86
2022/11/23 16:23:53;;;;;;;68.12;31.97;;;;;;;0.62;100.00;97986.09;4248562;82;21652;-85
2022/11/23 16:30:03;;;;;;;76.70;33.83;;;;;;;0.60;100.00;97993.72;4195872;83;21006;-85
2022/11/23 16:36:08;;;;;;;75.22;32.33;;;;;;;0.59;100.00;97997.55;4213134;83;21597;-85
2022/11/23 16:42:28;;;;;;;74.03;30.30;;;;;;;0.59;100.00;98013.70;4273900;81;21102;-86
2022/11/23 16:48:52;;;;;;;85.28;34.25;;;;;;;0.56;100.00;98019.75;4183386;83;21013;-86
2022/11/23 16:54:54;;;;;;;82.50;33.53;;;;;;;0.51;100.00;98011.87;4198768;83;21606;-86
2022/11/23 17:00:55;;;;;;;87.78;35.17;;;;;;;0.50;100.00;97997.63;4279389;81;21558;-86
2022/11/23 17:14:02;;;;;;;80.40;33.45;;;;;;;0.47;100.00;98028.48;4206168;83;21067;-86
2022/11/23 17:20:09;;;;;;;70.75;31.70;;;;;;;0.46;100.00;98040.36;4204586;82;21636;-85
2022/11/23 17:26:39;;;;;;;68.02;30.50;;;;;;;0.46;100.00;98036.32;4252694;82;21523;-86
2022/11/23 17:32:48;;;;;;;73.97;31.48;;;;;;;0.47;100.00;98035.22;4255060;82;21046;-85
2022/11/23 17:38:50;;;;;;;68.47;32.03;;;;;;;0.50;100.00;98032.63;4220727;83;21629;-86
2022/11/23 17:44:54;;;;;;;64.10;29.52;;;;;;;0.51;100.00;98035.56;4276214;81;21540;-86
2022/11/23 17:50:56;;;;;;;64.42;31.95;;;;;;;0.53;100.00;98034.69;4233497;81;21012;-86
2022/11/23 17:56:58;;;;;;;57.20;28.87;;;;;;;0.52;100.00;98026.36;4058039;82;10000081;-86
2022/11/23 18:03:00;;;;;;;65.60;32.28;;;;;;;0.51;100.00;98033.42;4264014;82;20987;-88
2022/11/23 18:09:02;;;;;;;63.87;29.37;;;;;;;0.47;100.00;98028.48;4198693;83;21913;-86
2022/11/23 18:15:07;;;;;;;68.35;32.80;;;;;;;0.45;100.00;98037.45;4225626;82;21027;-87
2022/11/23 18:21:11;;;;;;;66.35;31.70;;;;;;;0.42;100.00;98046.98;4219543;82;21095;-86
2022/11/23 18:27:13;;;;;;;81.12;36.28;;;;;;;0.43;100.00;98040.47;4186290;83;21041;-85
2022/11/23 18:33:36;;;;;;;83.50;36.95;;;;;;;0.43;100.00;98034.30;4174841;84;21059;-87
2022/11/23 18:39:46;;;;;;;85.17;38.00;;;;;;;0.41;100.00;98022.52;4248240;82;21053;-87
2022/11/23 18:45:51;;;;;;;90.50;37.60;;;;;;;0.42;100.00;98038.91;4255338;82;21164;-86
2022/11/23 18:51:53;;;;;;;81.37;35.65;;;;;;;0.37;100.00;98011.39;4234976;82;21031;-86
2022/11/23 18:58:02;;;;;;;84.03;35.55;;;;;;;0.44;100.00;98029.16;4087890;83;9999976;-87
2022/11/23 19:04:03;;;;;;;75.85;32.35;;;;;;;0.42;100.00;98033.52;4196727;82;21031;-86
2022/11/23 19:16:43;;;;;;;69.25;30.50;;;;;;;0.44;100.00;98035.89;4267098;81;21015;-86
2022/11/23 19:22:51;;;;;;;70.10;30.02;;;;;;;0.45;100.00;98033.41;4251037;82;21455;-86
2022/11/23 19:29:18;;;;;;;65.12;28.70;;;;;;;0.45;100.00;98030.17;4267143;81;21031;-87
2022/11/23 19:35:26;;;;;;;69.20;29.67;;;;;;;0.44;100.00;98043.97;4246341;81;21014;-87
2022/11/23 19:41:29;;;;;;;65.40;28.40;;;;;;;0.46;100.00;98039.80;4300933;81;21014;-86
2022/11/23 19:47:30;;;;;;;59.03;26.42;;;;;;;0.48;100.00;98046.20;4288268;80;21030;-87
2022/11/23 19:53:34;;;;;;;62.75;26.48;;;;;;;0.45;100.00;98042.84;4218617;82;21133;-87
2022/11/23 19:59:42;;;;;;;66.85;28.83;;;;;;;0.44;100.00;98039.34;4079700;81;9999786;-87
2022/11/23 20:06:07;;;;;;;68.67;29.42;;;;;;;0.42;100.00;98044.30;4205647;83;21690;-86
2022/11/23 20:12:10;;;;;;;69.60;30.48;;;;;;;0.41;100.00;98049.44;4277038;81;21017;-86
2022/11/23 20:25:10;;;;;;;67.87;29.17;;;;;;;0.42;100.00;98065.03;4226961;82;21023;-86
2022/11/23 20:37:28;;;;;;;64.05;27.98;;;;;;;0.42;100.00;98081.19;4219895;82;21063;-86
2022/11/23 20:43:29;;;;;;;59.85;26.42;;;;;;;0.42;100.00;98076.61;4219538;82;21056;-86
2022/11/23 20:49:32;;;;;;;64.87;26.45;;;;;;;0.41;100.00;98081.74;4218812;82;22024;-86
2022/11/23 20:55:33;;;;;;;66.67;26.52;;;;;;;0.42;100.00;98079.84;4263122;81;21010;-86
2022/11/23 21:01:53;;;;;;;61.40;26.27;;;;;;;0.44;100.00;98089.16;4225291;82;22060;-86
2022/11/23 21:07:57;;;;;;;64.30;28.60;;;;;;;0.46;100.00;98087.48;4250098;82;21071;-86
2022/11/23 21:14:06;;;;;;;66.40;29.55;;;;;;;0.47;100.00;98091.77;4271069;81;21008;-86
2022/11/23 21:20:08;;;;;;;73.67;29.20;;;;;;;0.47;100.00;98083.69;4270699;81;21049;-86
2022/11/23 21:26:11;;;;;;;68.60;28.55;;;;;;;0.48;100.00;98083.91;4198701;83;21700;-86
2022/11/23 21:32:13;;;;;;;73.78;30.37;;;;;;;0.47;100.00;98090.42;4218194;82;21013;-86
2022/11/23 21:38:18;;;;;;;77.00;30.17;;;;;;;0.47;100.00;98095.23;4209341;82;21033;-86
2022/11/23 21:44:27;;;;;;;73.90;30.75;;;;;;;0.48;100.00;98087.95;4216345;82;21053;-86
2022/11/23 21:50:28;;;;;;;61.10;26.87;;;;;;;0.49;100.00;98088.16;4203954;84;21109;-86
2022/11/23 21:56:29;;;;;;;59.88;26.68;;;;;;;0.48;100.00;98094.67;4205930;83;21060;-86
2022/11/23 22:02:36;;;;;;;70.32;26.90;;;;;;;0.48;100.00;98087.39;4269417;81;20996;-86
2022/11/23 22:09:05;;;;;;;62.45;26.90;;;;;;;0.50;100.00;98094.56;4131181;83;21117;-86
2022/11/23 22:22:11;;;;;;;65.40;26.70;;;;;;;0.49;100.00;98094.34;4241677;82;21476;-86
2022/11/23 22:28:18;;;;;;;60.37;27.43;;;;;;;0.47;100.00;98085.03;4233224;84;20971;-86
2022/11/23 22:34:21;;;;;;;57.10;24.82;;;;;;;0.45;100.00;98085.91;4240616;83;21887;-85
2022/11/23 22:40:22;;;;;;;50.43;25.52;;;;;;;0.44;100.00;98087.05;4241999;84;21524;-86
2022/11/23 22:46:25;;;;;;;53.55;25.25;;;;;;;0.44;100.00;98087.81;4257221;82;21078;-86
2022/11/23 22:52:32;;;;;;;56.63;24.63;;;;;;;0.47;100.00;98091.77;4213490;82;21020;-86
2022/11/23 22:58:34;;;;;;;58.90;26.25;;;;;;;0.47;100.00;98089.08;4203741;83;21100;-86
2022/11/23 23:04:35;;;;;;;53.28;24.25;;;;;;;0.47;100.00;98089.08;4273361;81;21247;-86
2022/11/23 23:10:38;;;;;;;51.68;23.95;;;;;;;0.43;100.00;98091.62;4263500;82;21036;-87
2022/11/23 23:16:40;;;;;;;61.60;27.42;;;;;;;0.44;100.00;98084.35;4284089;81;21025;-86
2022/11/23 23:22:41;;;;;;;61.35;26.40;;;;;;;0.42;100.00;98086.58;4267056;82;21072;-86
2022/11/23 23:28:44;;;;;;;63.58;28.70;;;;;;;0.40;100.00;98075.34;4232426;82;20972;-86
2022/11/23 23:34:45;;;;;;;62.78;28.47;;;;;;;0.39;100.00;98078.61;4239641;82;21026;-86
2022/11/23 23:40:46;;;;;;;62.00;27.70;;;;;;;0.40;100.00;98077.48;4279341;82;21010;-86
2022/11/23 23:47:07;;;;;;;58.20;26.42;;;;;;;0.44;100.00;98078.39;4282867;81;21072;-86
2022/11/23 23:53:09;;;;;;;57.70;26.62;;;;;;;0.45;100.00;98080.53;4244904;81;21058;-86
2022/11/23 23:59:10;;;;;;;69.53;30.08;;;;;;;0.45;100.00;98082.67;4254628;82;21024;-86
